createdAt,value
2019-05-22T00:02:35.454Z,7.70
2019-05-22T00:05:24.237Z,10.10
2019-05-22T00:07:55.492Z,5.30
2019-05-22T00:10:30.681Z,5.80
2019-05-22T00:13:01.421Z,8.30
2019-05-22T00:15:31.775Z,8.70
2019-05-22T00:18:03.481Z,7.23
2019-05-22T00:20:33.790Z,15.17
2019-05-22T00:23:08.006Z,10.17
2019-05-22T00:25:38.630Z,6.93
2019-05-22T00:28:08.191Z,7.40
2019-05-22T00:30:38.998Z,12.63
2019-05-22T00:33:10.125Z,10.10
2019-05-22T00:35:39.644Z,10.93
2019-05-22T00:38:09.593Z,10.57
2019-05-22T00:40:45.531Z,10.87
2019-05-22T00:43:17.000Z,14.27
2019-05-22T00:45:48.722Z,14.20
2019-05-22T00:48:20.786Z,12.00
2019-05-22T00:51:00.732Z,15.00
2019-05-22T00:53:41.981Z,23.73
2019-05-22T00:56:26.304Z,20.23
2019-05-22T00:59:02.263Z,24.70
2019-05-22T01:01:38.297Z,26.73
2019-05-22T01:04:10.290Z,37.70
2019-05-22T01:06:40.008Z,34.93
2019-05-22T01:09:16.722Z,31.93
2019-05-22T01:11:47.685Z,38.63
2019-05-22T01:14:19.008Z,48.90
2019-05-22T01:16:49.703Z,35.37
2019-05-22T01:19:19.721Z,40.20
2019-05-22T01:21:50.538Z,47.60
2019-05-22T01:24:19.553Z,38.23
2019-05-22T01:26:52.127Z,39.00
2019-05-22T01:29:21.483Z,44.47
2019-05-22T01:31:54.228Z,47.10
2019-05-22T01:34:27.678Z,41.70
2019-05-22T01:37:01.725Z,42.67
2019-05-22T01:39:51.473Z,49.43
2019-05-22T01:42:27.156Z,53.53
2019-05-22T01:45:05.797Z,65.23
2019-05-22T01:47:46.684Z,55.93
2019-05-22T01:50:24.254Z,57.93
2019-05-22T01:52:55.283Z,55.73
2019-05-22T01:55:26.300Z,46.80
2019-05-22T01:57:56.011Z,56.87
2019-05-22T02:00:27.622Z,51.60
2019-05-22T02:02:57.918Z,47.50
2019-05-22T02:05:27.218Z,44.93
2019-05-22T02:07:57.020Z,49.37
2019-05-22T02:10:31.108Z,52.73
2019-05-22T02:13:03.231Z,51.83
2019-05-22T02:15:34.921Z,60.43
2019-05-22T02:18:09.533Z,51.37
2019-05-22T02:20:39.657Z,50.77
2019-05-22T02:23:09.421Z,47.57
2019-05-22T02:25:39.565Z,51.50
2019-05-22T02:28:11.451Z,53.63
2019-05-22T02:30:42.734Z,54.03
2019-05-22T02:33:13.931Z,49.13
2019-05-22T02:35:43.086Z,41.60
2019-05-22T02:38:12.443Z,52.30
2019-05-22T02:40:44.070Z,57.53
2019-05-22T02:43:14.281Z,70.50
2019-05-22T02:45:43.661Z,66.27
2019-05-22T02:48:14.342Z,60.07
2019-05-22T02:50:43.379Z,73.23
2019-05-22T02:53:14.928Z,65.30
2019-05-22T02:55:44.126Z,74.40
2019-05-22T02:58:13.822Z,71.47
2019-05-22T03:01:03.134Z,74.30
2019-05-22T03:03:33.764Z,68.33
2019-05-22T03:06:04.534Z,64.83
2019-05-22T03:08:54.218Z,75.73
2019-05-22T03:11:24.890Z,70.80
2019-05-22T03:14:01.562Z,84.17
2019-05-22T03:16:54.201Z,79.27
2019-05-22T03:19:37.594Z,79.30
2019-05-22T03:22:25.738Z,96.50
2019-05-22T03:24:56.925Z,95.77
2019-05-22T03:27:36.449Z,100.73
2019-05-22T03:30:09.197Z,92.73
2019-05-22T03:32:43.387Z,105.30
2019-05-22T03:35:09.221Z,91.97
2019-05-22T03:37:39.786Z,99.93
2019-05-22T03:40:09.273Z,98.10
2019-05-22T03:42:38.362Z,89.53
2019-05-22T03:45:10.022Z,103.57
2019-05-22T03:47:41.257Z,116.40
2019-05-22T03:50:11.772Z,102.83
2019-05-22T03:52:41.386Z,104.43
2019-05-22T03:55:12.839Z,96.30
2019-05-22T03:57:42.694Z,114.53
2019-05-22T04:00:16.662Z,91.20
2019-05-22T04:02:49.349Z,85.07
2019-05-22T04:05:20.083Z,100.83
2019-05-22T04:07:50.109Z,94.33
2019-05-22T04:10:19.685Z,103.33
2019-05-22T04:12:50.119Z,100.40
2019-05-22T04:15:20.495Z,85.83
2019-05-22T04:17:49.626Z,80.80
2019-05-22T04:20:20.452Z,99.73
2019-05-22T04:22:55.783Z,87.40
2019-05-22T04:25:25.252Z,98.60
2019-05-22T04:27:54.537Z,85.00
2019-05-22T04:30:25.079Z,90.97
2019-05-22T04:32:54.166Z,82.17
2019-05-22T04:35:23.884Z,82.93
2019-05-22T04:37:53.894Z,68.27
2019-05-22T04:40:49.492Z,85.97
2019-05-22T04:43:21.309Z,82.80
2019-05-22T04:45:51.646Z,84.90
2019-05-22T04:48:39.813Z,81.20
2019-05-22T04:51:27.316Z,73.00
2019-05-22T04:53:57.370Z,82.67
2019-05-22T04:56:28.236Z,77.57
2019-05-22T04:58:58.598Z,104.20
2019-05-22T05:01:27.839Z,103.53
2019-05-22T05:03:57.366Z,101.23
2019-05-22T05:06:28.950Z,75.40
2019-05-22T05:08:58.099Z,76.43
2019-05-22T05:11:27.465Z,89.63
2019-05-22T05:13:56.673Z,99.17
2019-05-22T05:16:25.936Z,87.03
2019-05-22T05:18:55.386Z,91.17
2019-05-22T05:21:24.476Z,92.27
2019-05-22T05:23:54.145Z,96.17
2019-05-22T05:26:24.884Z,87.33
2019-05-22T05:28:54.484Z,104.37
2019-05-22T05:31:25.273Z,91.17
2019-05-22T05:34:10.884Z,101.90
2019-05-22T05:36:41.157Z,100.17
2019-05-22T05:39:32.710Z,92.73
2019-05-22T05:42:21.134Z,96.37
2019-05-22T05:44:50.173Z,100.37
2019-05-22T05:47:19.140Z,85.60
2019-05-22T05:49:49.157Z,112.47
2019-05-22T05:52:19.209Z,96.13
2019-05-22T05:54:49.545Z,99.03
2019-05-22T05:58:11.840Z,91.03
2019-05-22T06:00:46.850Z,89.50
2019-05-22T06:03:35.845Z,109.23
2019-05-22T06:06:32.929Z,84.57
2019-05-22T06:09:04.305Z,79.43
2019-05-22T06:11:46.809Z,76.93
2019-05-22T06:14:21.317Z,78.03
2019-05-22T06:17:51.445Z,72.27
2019-05-22T06:20:21.958Z,61.67
2019-05-22T06:23:42.195Z,75.87
2019-05-22T06:26:14.322Z,66.77
2019-05-22T06:28:43.925Z,66.87
2019-05-22T06:31:20.117Z,69.83
2019-05-22T06:33:49.151Z,65.07
2019-05-22T06:36:19.118Z,61.67
2019-05-22T06:38:57.341Z,70.20
2019-05-22T06:41:31.700Z,71.93
2019-05-22T06:44:38.888Z,80.00
2019-05-22T06:47:13.349Z,74.07
2019-05-22T06:49:47.233Z,85.60
2019-05-22T06:52:16.983Z,91.00
2019-05-22T06:54:46.221Z,77.53
2019-05-22T06:57:18.380Z,81.10
2019-05-22T06:59:49.148Z,74.23
2019-05-22T07:02:19.050Z,74.10
2019-05-22T07:04:48.157Z,75.57
2019-05-22T07:07:18.365Z,94.97
2019-05-22T07:09:47.388Z,74.80
2019-05-22T07:12:20.058Z,82.07
2019-05-22T07:16:01.773Z,74.77
2019-05-22T07:18:31.877Z,72.53
2019-05-22T07:21:01.590Z,79.43
2019-05-22T07:23:33.301Z,86.30
2019-05-22T07:26:04.379Z,87.20
2019-05-22T07:28:35.183Z,86.57
2019-05-22T07:31:05.908Z,85.77
2019-05-22T07:33:35.013Z,97.00
2019-05-22T07:36:09.941Z,79.10
2019-05-22T07:38:36.277Z,62.97
2019-05-22T07:41:08.284Z,68.60
2019-05-22T07:43:41.167Z,63.07
2019-05-22T07:46:09.108Z,68.00
2019-05-22T07:48:38.164Z,61.43
2019-05-22T07:51:08.181Z,66.97
2019-05-22T07:53:37.522Z,68.10
2019-05-22T07:56:10.192Z,64.67
2019-05-22T07:58:39.752Z,56.93
2019-05-22T08:01:09.585Z,62.57
2019-05-22T08:03:39.946Z,50.23
2019-05-22T08:06:09.366Z,52.23
2019-05-22T08:08:41.736Z,47.90
2019-05-22T08:11:11.258Z,47.03
2019-05-22T08:13:41.547Z,52.73
2019-05-22T08:16:11.058Z,53.40
2019-05-22T08:18:41.447Z,49.20
2019-05-22T08:21:11.685Z,53.70
2019-05-22T08:23:41.104Z,45.23
2019-05-22T08:26:11.621Z,64.23
2019-05-22T08:28:41.280Z,50.50
2019-05-22T08:31:13.075Z,43.77
2019-05-22T08:33:42.818Z,47.60
2019-05-22T08:36:12.509Z,52.50
2019-05-22T08:38:44.492Z,64.90
2019-05-22T08:41:15.352Z,54.53
2019-05-22T08:44:11.379Z,53.80
2019-05-22T08:46:18.149Z,61.37
2019-05-22T08:48:49.301Z,46.53
2019-05-22T08:51:19.187Z,47.03
2019-05-22T08:53:49.147Z,56.20
2019-05-22T08:56:18.802Z,41.80
2019-05-22T08:58:48.769Z,45.90
2019-05-22T09:01:17.797Z,49.30
2019-05-22T09:03:47.460Z,46.60
2019-05-22T09:06:16.931Z,44.63
2019-05-22T09:08:46.139Z,47.60
2019-05-22T09:11:15.233Z,50.00
2019-05-22T09:13:44.208Z,49.87
2019-05-22T09:16:14.413Z,44.13
2019-05-22T09:18:43.387Z,49.10
2019-05-22T09:21:13.397Z,56.37
2019-05-22T09:23:43.026Z,59.67
2019-05-22T09:26:12.625Z,68.73
2019-05-22T09:28:41.934Z,61.63
2019-05-22T09:31:10.961Z,60.90
2019-05-22T09:33:40.014Z,53.33
2019-05-22T09:36:09.530Z,49.60
2019-05-22T09:38:39.115Z,45.10
2019-05-22T09:41:08.338Z,49.30
2019-05-22T09:43:37.738Z,49.37
2019-05-22T09:46:08.812Z,55.33
2019-05-22T09:48:38.433Z,41.40
2019-05-22T09:51:07.485Z,51.13
2019-05-22T09:53:38.170Z,37.17
2019-05-22T09:56:07.553Z,46.63
2019-05-22T09:58:36.883Z,41.57
2019-05-22T10:01:11.306Z,41.30
2019-05-22T10:03:39.110Z,41.27
2019-05-22T10:06:08.293Z,52.80
2019-05-22T10:08:38.298Z,50.00
2019-05-22T10:11:07.869Z,41.20
2019-05-22T10:13:37.093Z,40.53
2019-05-22T10:16:06.637Z,47.00
2019-05-22T10:18:35.857Z,42.27
2019-05-22T10:21:05.200Z,40.47
2019-05-22T10:23:34.672Z,40.90
2019-05-22T10:26:04.481Z,43.50
2019-05-22T10:28:34.445Z,40.87
2019-05-22T10:31:03.736Z,44.30
2019-05-22T10:33:32.979Z,54.20
2019-05-22T10:36:01.932Z,44.73
2019-05-22T10:38:31.090Z,52.70
2019-05-22T10:41:00.157Z,49.87
2019-05-22T10:43:29.503Z,45.23
2019-05-22T10:45:58.936Z,39.80
2019-05-22T10:48:28.430Z,49.37
2019-05-22T10:50:57.372Z,40.30
2019-05-22T10:53:33.868Z,44.97
2019-05-22T10:55:58.685Z,36.17
2019-05-22T10:58:27.729Z,41.60
2019-05-22T11:00:56.853Z,39.27
2019-05-22T11:03:26.649Z,43.97
2019-05-22T11:06:06.600Z,44.60
2019-05-22T11:08:31.832Z,38.67
2019-05-22T11:10:57.984Z,40.83
2019-05-22T11:13:27.125Z,46.10
2019-05-22T11:15:58.469Z,48.53
2019-05-22T11:18:28.217Z,39.60
2019-05-22T11:20:58.048Z,41.67
2019-05-22T11:23:27.988Z,42.03
2019-05-22T11:25:57.309Z,41.93
2019-05-22T11:28:27.806Z,42.83
2019-05-22T11:30:58.016Z,39.77
2019-05-22T11:33:27.771Z,38.10
2019-05-22T11:35:57.410Z,37.87
2019-05-22T11:38:27.225Z,38.60
2019-05-22T11:40:56.828Z,28.63
2019-05-22T11:43:26.766Z,42.63
2019-05-22T11:45:56.002Z,31.83
2019-05-22T11:48:26.124Z,32.70
2019-05-22T11:50:55.753Z,32.50
2019-05-22T11:53:25.476Z,34.83
2019-05-22T11:55:54.786Z,34.53
2019-05-22T11:58:24.185Z,36.90
2019-05-22T12:00:53.209Z,35.63
2019-05-22T12:03:24.650Z,33.80
2019-05-22T12:05:54.970Z,29.67
2019-05-22T12:08:25.289Z,31.77
2019-05-22T12:10:54.493Z,27.37
2019-05-22T12:13:24.719Z,33.27
2019-05-22T12:15:56.218Z,37.67
2019-05-22T12:18:26.934Z,36.83
2019-05-22T12:20:56.381Z,38.23
2019-05-22T12:23:26.637Z,35.50
2019-05-22T12:25:56.309Z,38.97
2019-05-22T12:28:25.516Z,37.77
2019-05-22T12:30:55.621Z,35.30
2019-05-22T12:33:24.945Z,34.37
2019-05-22T12:35:54.656Z,42.07
2019-05-22T12:38:26.900Z,42.43
2019-05-22T12:40:56.825Z,35.53
2019-05-22T12:43:30.286Z,45.00
2019-05-22T12:45:59.613Z,38.83
2019-05-22T12:48:29.426Z,35.70
2019-05-22T12:50:59.350Z,38.10
2019-05-22T12:53:30.190Z,36.40
2019-05-22T12:55:59.729Z,36.13
2019-05-22T12:58:30.013Z,29.50
2019-05-22T13:00:59.922Z,32.73
2019-05-22T13:03:30.193Z,37.40
2019-05-22T13:06:01.374Z,31.03
2019-05-22T13:08:31.817Z,32.67
2019-05-22T13:11:05.135Z,29.30
2019-05-22T13:13:32.250Z,32.93
2019-05-22T13:16:02.081Z,35.70
2019-05-22T13:18:33.217Z,30.27
2019-05-22T13:21:06.053Z,28.50
2019-05-22T13:23:39.528Z,28.17
2019-05-22T13:26:09.302Z,37.70
2019-05-22T13:28:42.181Z,29.10
2019-05-22T13:31:11.523Z,25.77
2019-05-22T13:33:43.580Z,36.70
2019-05-22T13:36:14.312Z,26.20
2019-05-22T13:38:43.555Z,28.17
2019-05-22T13:41:12.897Z,25.70
2019-05-22T13:43:42.224Z,26.40
2019-05-22T13:46:11.622Z,24.07
2019-05-22T13:48:40.652Z,28.03
2019-05-22T13:51:12.040Z,25.73
2019-05-22T13:53:42.546Z,26.10
2019-05-22T13:56:12.000Z,26.80
2019-05-22T13:58:41.622Z,25.50
2019-05-22T14:01:11.272Z,22.13
2019-05-22T14:03:41.487Z,22.63
2019-05-22T14:06:10.630Z,23.17
2019-05-22T14:08:39.883Z,32.10
2019-05-22T14:11:10.326Z,24.97
2019-05-22T14:13:39.713Z,25.23
2019-05-22T14:16:09.831Z,18.03
2019-05-22T14:18:38.959Z,16.53
2019-05-22T14:21:08.000Z,19.53
2019-05-22T14:23:37.245Z,16.00
2019-05-22T14:26:06.361Z,13.50
2019-05-22T14:28:36.187Z,12.60
2019-05-22T14:31:05.521Z,11.57
2019-05-22T14:33:34.542Z,12.60
2019-05-22T14:36:04.757Z,13.70
2019-05-22T14:38:34.584Z,10.50
2019-05-22T14:41:04.973Z,13.33
2019-05-22T14:43:34.305Z,13.43
2019-05-22T14:46:03.851Z,11.27
2019-05-22T14:48:32.961Z,17.63
2019-05-22T14:51:02.517Z,10.93
2019-05-22T14:53:31.940Z,11.90
2019-05-22T14:56:01.185Z,11.00
2019-05-22T14:58:30.308Z,11.50
2019-05-22T15:01:00.185Z,14.93
2019-05-22T15:03:29.156Z,14.43
2019-05-22T15:05:58.261Z,17.30
2019-05-22T15:08:27.893Z,15.80
2019-05-22T15:10:58.474Z,15.97
2019-05-22T15:13:27.923Z,13.77
2019-05-22T15:15:57.137Z,15.17
2019-05-22T15:18:26.473Z,14.47
2019-05-22T15:21:04.829Z,16.20
2019-05-22T15:23:34.744Z,14.13
2019-05-22T15:26:03.976Z,16.60
2019-05-22T15:28:34.491Z,15.13
2019-05-22T15:31:04.492Z,13.00
2019-05-22T15:33:35.034Z,15.27
2019-05-22T15:36:06.748Z,12.63
2019-05-22T15:38:38.940Z,13.60
2019-05-22T15:41:09.453Z,12.47
2019-05-22T15:43:40.202Z,12.90
2019-05-22T15:46:10.856Z,15.63
2019-05-22T15:48:43.204Z,18.20
2019-05-22T15:51:12.810Z,12.50
2019-05-22T15:53:43.293Z,12.70
2019-05-22T15:56:12.501Z,10.80
2019-05-22T15:58:48.854Z,11.53
2019-05-22T16:01:22.090Z,13.50
2019-05-22T16:03:51.744Z,14.30
2019-05-22T16:06:22.117Z,11.47
2019-05-22T16:08:53.080Z,12.30
2019-05-22T16:11:25.196Z,14.90
2019-05-22T16:13:56.489Z,11.80
2019-05-22T16:16:26.615Z,10.30
2019-05-22T16:19:00.117Z,18.70
2019-05-22T16:21:31.437Z,9.43
2019-05-22T16:24:01.050Z,9.67
2019-05-22T16:26:30.668Z,9.47
2019-05-22T16:29:01.209Z,11.40
2019-05-22T16:31:31.505Z,13.37
2019-05-22T16:34:00.602Z,13.23
2019-05-22T16:36:30.803Z,12.10
2019-05-22T16:39:00.564Z,11.93
2019-05-22T16:41:32.061Z,10.23
2019-05-22T16:44:01.185Z,13.50
2019-05-22T16:46:31.036Z,12.37
2019-05-22T16:49:00.162Z,15.97
2019-05-22T16:51:31.272Z,15.47
2019-05-22T16:54:07.125Z,9.67
2019-05-22T16:56:38.292Z,9.90
2019-05-22T16:59:10.117Z,13.20
2019-05-22T17:01:57.661Z,12.40
2019-05-22T17:04:11.897Z,11.93
2019-05-22T17:06:43.409Z,12.43
2019-05-22T17:09:15.677Z,14.13
2019-05-22T17:11:45.927Z,12.00
2019-05-22T17:14:16.940Z,13.57
2019-05-22T17:17:05.801Z,10.47
2019-05-22T17:19:35.020Z,11.80
2019-05-22T17:22:06.685Z,11.70
2019-05-22T17:24:36.086Z,10.00
2019-05-22T17:27:07.668Z,15.07
2019-05-22T17:29:37.521Z,9.77
2019-05-22T17:32:08.039Z,12.40
2019-05-22T17:34:39.182Z,12.83
2019-05-22T17:37:14.401Z,9.27
2019-05-22T17:39:46.665Z,14.20
2019-05-22T17:42:18.869Z,11.17
2019-05-22T17:44:50.649Z,13.90
2019-05-22T17:47:21.912Z,9.50
2019-05-22T17:49:51.538Z,11.03
2019-05-22T17:52:22.082Z,13.10
2019-05-22T17:54:51.965Z,9.80
2019-05-22T17:57:24.026Z,14.50
2019-05-22T17:59:54.348Z,10.77
2019-05-22T18:02:26.271Z,9.00
2019-05-22T18:04:55.573Z,7.67
2019-05-22T18:07:25.206Z,11.30
2019-05-22T18:09:54.806Z,9.80
2019-05-22T18:12:24.127Z,8.03
2019-05-22T18:14:53.942Z,7.37
2019-05-22T18:17:23.604Z,8.90
2019-05-22T18:19:53.145Z,7.00
2019-05-22T18:22:22.445Z,9.00
2019-05-22T18:24:51.492Z,9.60
2019-05-22T18:27:20.828Z,9.90
2019-05-22T18:29:50.273Z,19.83
2019-05-22T18:32:19.564Z,9.37
2019-05-22T18:34:48.529Z,11.97
2019-05-22T18:37:17.816Z,8.10
2019-05-22T18:39:47.529Z,10.30
2019-05-22T18:42:17.110Z,9.07
2019-05-22T18:44:46.613Z,10.30
2019-05-22T18:47:15.857Z,6.90
2019-05-22T18:49:44.887Z,10.50
2019-05-22T18:52:14.105Z,10.07
2019-05-22T18:54:43.338Z,15.10
2019-05-22T18:57:12.349Z,8.50
2019-05-22T18:59:41.653Z,13.20
2019-05-22T19:02:11.917Z,10.40
2019-05-22T19:04:41.252Z,8.00
2019-05-22T19:07:10.272Z,11.33
2019-05-22T19:09:39.506Z,8.10
2019-05-22T19:12:08.729Z,7.60
2019-05-22T19:14:38.417Z,8.93
2019-05-22T19:17:07.705Z,7.03
2019-05-22T19:19:37.562Z,8.00
2019-05-22T19:22:07.040Z,7.87
2019-05-22T19:24:36.255Z,8.57
2019-05-22T19:27:05.419Z,10.27
2019-05-22T19:29:34.653Z,11.30
2019-05-22T19:32:04.034Z,9.17
2019-05-22T19:34:33.624Z,7.43
2019-05-22T19:37:03.054Z,10.20
2019-05-22T19:39:33.665Z,7.93
2019-05-22T19:42:05.649Z,7.27
2019-05-22T19:44:34.209Z,8.33
2019-05-22T19:47:03.421Z,8.83
2019-05-22T19:49:32.444Z,6.50
2019-05-22T19:52:01.698Z,7.03
2019-05-22T19:54:31.131Z,7.93
2019-05-22T19:57:00.518Z,7.60
2019-05-22T19:59:49.177Z,9.20
2019-05-22T20:02:18.320Z,8.70
2019-05-22T20:04:47.660Z,7.27
2019-05-22T20:07:17.381Z,6.10
2019-05-22T20:09:48.456Z,8.03
2019-05-22T20:12:18.759Z,9.07
2019-05-22T20:14:48.235Z,7.30
2019-05-22T20:17:17.446Z,8.53
2019-05-22T20:19:46.713Z,10.07
2019-05-22T20:22:15.668Z,6.43
2019-05-22T20:24:45.005Z,10.20
2019-05-22T20:27:14.645Z,10.23
2019-05-22T20:29:45.001Z,18.90
2019-05-22T20:32:15.349Z,12.33
2019-05-22T20:34:46.018Z,9.53
2019-05-22T20:37:15.308Z,6.53
2019-05-22T20:39:45.534Z,6.67
2019-05-22T20:42:14.959Z,7.63
2019-05-22T20:44:44.184Z,6.93
2019-05-22T20:47:13.892Z,6.10
2019-05-22T20:49:45.229Z,7.07
2019-05-22T20:52:17.147Z,9.93
2019-05-22T20:54:48.701Z,7.63
2019-05-22T20:57:20.262Z,6.00
2019-05-22T20:59:49.749Z,6.03
2019-05-22T21:02:19.745Z,6.50
2019-05-22T21:04:51.353Z,6.10
2019-05-22T21:07:26.541Z,7.33
2019-05-22T21:09:56.433Z,7.37
2019-05-22T21:12:27.594Z,13.20
2019-05-22T21:14:57.736Z,12.67
2019-05-22T21:17:28.258Z,5.70
2019-05-22T21:19:58.185Z,6.20
2019-05-22T21:22:27.476Z,5.20
2019-05-22T21:24:56.505Z,6.47
2019-05-22T21:27:26.321Z,5.90
2019-05-22T21:29:57.241Z,8.30
2019-05-22T21:32:27.581Z,7.83
2019-05-22T21:34:57.178Z,12.17
2019-05-22T21:37:27.037Z,14.53
2019-05-22T21:39:57.164Z,9.20
2019-05-22T21:42:26.780Z,6.50
2019-05-22T21:44:56.297Z,5.80
2019-05-22T21:47:25.548Z,12.67
2019-05-22T21:49:55.245Z,6.63
2019-05-22T21:52:24.805Z,4.87
2019-05-22T21:54:54.521Z,6.03
2019-05-22T21:57:23.965Z,10.83
2019-05-22T21:59:53.557Z,7.40
2019-05-22T22:02:31.601Z,7.23
2019-05-22T22:05:00.500Z,4.90
2019-05-22T22:07:30.571Z,9.53
2019-05-22T22:10:00.455Z,4.90
2019-05-22T22:12:30.965Z,6.73
2019-05-22T22:34:54.112Z,3.77
2019-05-22T22:37:24.656Z,5.60
2019-05-22T22:39:56.582Z,9.10
2019-05-22T22:42:29.142Z,6.10
2019-05-22T22:44:58.991Z,10.70
2019-05-22T22:47:45.748Z,6.65
2019-05-22T22:50:16.561Z,6.90
2019-05-22T22:52:46.312Z,9.90
2019-05-22T22:55:18.986Z,7.42
2019-05-22T22:57:49.695Z,5.80
2019-05-22T23:00:25.176Z,6.20
2019-05-22T23:02:54.696Z,6.45
2019-05-22T23:05:24.434Z,5.60
2019-05-22T23:07:54.892Z,8.53
2019-05-22T23:10:25.695Z,6.70
2019-05-22T23:12:54.940Z,9.17
2019-05-22T23:15:25.538Z,9.70
2019-05-22T23:17:55.437Z,6.80
2019-05-22T23:20:23.337Z,5.83
2019-05-22T23:22:51.633Z,4.90
2019-05-22T23:25:21.257Z,5.00
2019-05-22T23:27:50.962Z,6.20
2019-05-22T23:30:22.710Z,5.92
2019-05-22T23:32:54.442Z,6.00
2019-05-22T23:35:24.872Z,5.90
2019-05-22T23:37:54.952Z,6.70
2019-05-22T23:40:28.433Z,6.55
2019-05-22T23:42:59.429Z,8.70
2019-05-22T23:45:28.470Z,9.15
2019-05-22T23:48:06.127Z,6.70
2019-05-22T23:50:38.144Z,6.40
2019-05-22T23:53:08.594Z,6.17
2019-05-22T23:55:38.892Z,11.83
2019-05-22T23:58:11.778Z,5.97
